Toledo, Iowa
Current Conditions -  °F | °C
As of 4:26 PM on Friday 24 Oct 2014 (Local Time) from KMIW Reporting Station
Haze Haze  
Wind Chill: 62°   Ceiling: 2300
Heat Index: 62°   Visibility: 3mi
Dew Point: 60°   Wind: 8mph
Humidity: 93%   Direction: 180°S
Pressure: 29.89"   Gusts: NA
Location:  42°N, 92.58°W
Report Text: KMIW 242126Z AUTO 18007KT 3SM BR SCT009 SCT016 OVC023 17/16 A2989 RMK AO2 T01670156
Loading
Personal Weather Stations






























Interactive Weather Map
Tropical Storm Tracking
New forecast layout! Learn more

10-Day Weather Forecast

Advertisements
Track Severe Weather on mobile